Aeroporto :
LOGIN :

Iscrizione | Disclaimer

   EN    FR    IT 

 










Sommario :    VFR   VFR Marginale   IFR   IFR Intensivo   IFR Molto Intensivo
Visibilità : 
Base nubi : 
>= 8 km
>= 3000ft
5 / 8 km
1000 / 3000 ft
1500m / 5 km
500 / 1000 ft
800 / 1500m
200 / 500 ft
< 800m
< 200 ft
Simboli :   Temporali  Nebbia  Neve Forte  Precipitazioni Forti  Vento > 20 kt
SIGMETs :   Varie  Temporali  Ghiacco  Turbolenza  Onda orograficha  Ceneri Vulcaniche







- Altitudine del aeroporto : 526 ft
- Codice IATA : LTN
- Carte del aeroporto


EGGW - London Luton

ULTIMO METAR :
  • 200320Z AUTO 36007KT 9999 -RA OVC003 08/07 Q1017

METARs OBSOLETI :
  • 200250Z AUTO 35006KT 4000 -DZ OVC002 08/07 Q1017
  • 200220Z AUTO 35007KT 2500 -RADZ OVC002 08/08 Q1017
  • 200150Z AUTO 36006KT 3600 -DZ OVC002 08/07 Q1017 REDZ
  • 200120Z AUTO 35007KT 2300 DZ OVC001 08/08 Q1017
  • 200050Z AUTO 34008KT 3100 -RADZ OVC002 08/08 Q1017

TAF TAF EGGW
Valido dal 20 a 00 ore il 21 a 00 ore UTC


192302Z 2000/2024 34009KT 3000 BR BKN005
TEMPO 2000/2010 1200 DZ BKN002
PROB40 2000/2009 0300 FG OVC001
BECMG 2010/2013 9999 NSW BKN018
TEMPO 2010/2013 RADZ
TEMPO 2011/2020 35015G25KT
TEMPO 2013/2020 8000 -SHRA BKN010
TEMPO 2020/2024 BKN009
ATIS : +44 1582 395 204
Nessun NOTAM noto per questo aeroporto.



MetMap, La meteo Aeronautica in un colpo d'occhio ! - Copyright ORBIFLY Dicembre 2007 - Disclaimer

ORBIFLY MET'MAP TEAM :

Programmazione e sviluppo : Alexandra Zaïnal
Concezione e sviluppo : Baudouin d'Aumeries
Co-Programmazione e sviluppo : Marc-Olivier Méhu
Supporto tecnico e logistico : Manuel Goepfert
Aiuto per la traduzione : Arnaldo La Scala

Contatto : metmap@orbifly.com




FONTI E CREDITI :

   NOAA